Date,TemperatureHighF,TemperatureAvgF,TemperatureLowF,DewpointHighF,DewpointAvgF,DewpointLowF,HumidityHigh,HumidityAvg,HumidityLow,PressureMaxIn,PressureMinIn,WindSpeedMaxMPH,WindSpeedAvgMPH,GustSpeedMaxMPH,PrecipitationSumIn
2013-1-1,20,11,-4,18,8,-9,97,87,71,0.00,40.00,26,13,31,0.00
2013-1-2,29,20,11,28,18,10,99,95,87,0.00,40.00,24,14,30,0.00
2013-1-3,20,11,4,16,8,0,93,86,79,0.00,40.00,30,18,34,0.00
2013-1-4,30,21,15,21,14,9,85,74,60,0.00,40.00,32,16,37,0.00
2013-1-5,28,18,12,19,13,5,94,81,67,0.00,40.00,29,17,34,0.00
2013-1-6,28,16,8,19,12,5,94,84,74,0.00,40.00,32,15,41,0.00
2013-1-7,35,28,23,30,23,18,88,80,66,0.00,40.00,36,18,44,0.00
2013-1-8,35,28,23,30,24,14,97,84,51,0.00,40.00,22,15,28,0.00
2013-1-9,34,32,27,30,26,21,92,81,62,0.00,40.00,27,17,36,0.00
2013-1-10,37,34,30,34,28,23,99,81,58,0.00,40.00,29,21,35,0.01
2013-1-11,37,34,27,36,34,23,99,99,99,0.00,40.00,24,15,27,0.01
2013-1-12,26,11,2,25,5,-2,99,80,66,0.00,40.00,31,19,39,0.00
2013-1-13,10,5,0,3,-1,-4,84,76,56,0.00,40.00,20,14,25,0.00
2013-1-14,18,11,6,10,6,3,86,79,58,0.00,40.00,17,8,21,0.00
2013-1-15,29,19,10,19,12,7,86,75,50,0.00,40.00,30,19,37,0.00
2013-1-16,37,25,5,36,22,-4,99,88,64,0.00,40.00,29,19,35,0.00
2013-1-17,27,16,3,21,9,-9,96,74,47,0.00,40.00,21,10,26,0.00
2013-1-18,42,34,22,34,30,21,99,85,66,0.00,40.00,28,18,35,0.00
2013-1-19,40,27,3,32,20,-6,96,78,61,0.00,40.00,37,22,45,0.00
2013-1-20,11,3,-2,3,-4,-15,82,72,64,0.00,40.00,26,15,31,0.00
2013-1-21,1,-5,-10,-9,-14,-20,68,62,57,0.00,40.00,27,18,34,0.00
2013-1-22,13,3,-7,9,-6,-15,82,65,50,0.00,40.00,13,6,17,0.00
2013-1-23,15,7,-8,10,0,-17,91,75,58,0.00,40.00,28,16,41,0.00
2013-1-24,13,3,-9,5,-9,-17,72,58,48,0.00,40.00,29,15,35,0.00
2013-1-25,22,12,1,18,3,-6,83,68,50,0.00,40.00,32,18,42,0.00
2013-1-26,29,14,-1,16,3,-8,77,64,47,0.00,40.00,28,14,33,0.00
2013-1-27,32,29,26,32,24,16,99,80,60,0.00,40.00,22,12,25,0.03
2013-1-28,34,31,29,34,30,28,99,99,99,0.00,40.00,0,0,0,0.01
2013-1-29,31,27,21,30,27,19,99,99,99,0.00,40.00,1,0,1,0.00
2013-1-30,21,12,0,21,9,-6,99,88,77,0.00,40.00,1,1,1,0.00
2013-1-31,-4,-7,-9,-11,-16,-18,71,65,62,0.00,40.00,26,-1,32,0.00
2013-2-1,16,3,-10,12,-4,-18,89,72,63,0.00,40.00,17,9,24,0.00
2013-2-2,29,12,1,28,9,-2,99,89,77,0.00,40.00,34,13,43,0.00
2013-2-3,23,14,8,16,10,5,99,84,60,0.00,40.00,25,12,34,0.00
2013-2-4,23,13,4,21,10,1,97,88,66,0.00,40.00,30,10,36,0.00
2013-2-5,31,22,12,30,20,9,99,92,84,0.00,40.00,27,14,34,0.00
2013-2-6,39,27,9,36,25,5,99,93,82,0.00,40.00,25,13,32,0.00
2013-2-7,31,22,19,30,22,19,99,99,97,0.00,40.00,15,8,19,0.00
2013-2-8,28,24,20,27,21,18,99,91,86,0.00,40.00,29,12,35,0.00
2013-2-9,33,29,24,32,28,23,99,99,99,0.00,40.00,30,20,37,0.00
2013-2-10,33,30,25,32,29,25,99,99,99,0.00,40.00,26,14,33,0.02
2013-2-11,25,21,18,25,18,14,99,91,80,0.00,40.00,33,22,43,0.01
2013-2-12,31,23,18,25,20,16,99,87,73,0.00,40.00,22,15,27,0.00
2013-2-13,37,30,21,34,28,19,99,89,77,0.00,40.00,29,15,35,0.00
2013-2-14,31,21,8,30,18,3,99,90,79,0.00,40.00,24,17,32,0.00
2013-2-15,15,10,6,9,6,0,90,84,74,0.00,40.00,17,11,22,0.00
2013-2-16,25,13,1,19,10,-2,97,89,75,0.00,40.00,13,9,16,0.00
2013-2-17,36,27,17,32,24,16,98,90,79,0.00,40.00,30,21,36,0.00
2013-2-18,35,20,0,34,17,-6,99,89,73,0.00,40.00,39,26,49,0.00
2013-2-19,0,-4,-8,-4,-10,-15,82,74,68,0.00,40.00,39,26,49,0.00
2013-2-20,12,0,-11,5,-7,-17,82,75,67,0.00,40.00,12,8,17,0.00
2013-2-21,19,12,4,14,7,1,94,80,74,0.00,40.00,20,12,25,0.00
2013-2-22,22,18,12,19,17,12,99,97,92,0.00,40.00,16,11,20,0.00
2013-2-23,28,14,1,14,8,-4,95,79,50,0.00,40.00,14,8,16,0.00
2013-2-24,22,16,6,21,14,3,99,94,89,0.00,40.00,9,4,10,0.00
2013-2-25,27,21,15,27,21,14,99,99,99,0.00,40.00,10,4,12,0.00
2013-2-26,26,22,18,25,21,18,99,99,99,0.00,40.00,18,10,24,0.00
2013-2-27,27,21,14,25,19,14,99,92,77,0.00,40.00,27,18,37,0.00
2013-2-28,25,21,18,25,21,18,99,99,96,0.00,40.00,14,10,20,0.00
2013-3-1,23,18,12,21,15,10,99,88,73,0.00,40.00,14,9,17,0.00
2013-3-2,30,19,7,25,16,5,99,88,60,0.00,40.00,14,7,17,0.00
2013-3-3,32,26,19,27,23,19,99,89,75,0.00,40.00,29,18,34,0.00
2013-3-4,28,26,23,27,25,23,99,99,99,0.00,40.00,27,17,34,0.00
2013-3-5,28,23,18,27,22,18,99,98,91,0.00,40.00,24,16,31,0.00
2013-3-6,26,21,18,19,18,16,99,90,73,0.00,40.00,18,7,26,0.00
2013-3-7,29,21,13,23,19,12,99,91,75,0.00,40.00,26,17,30,0.00
2013-3-8,36,28,19,34,26,19,99,95,82,0.00,40.00,26,14,31,0.00
2013-3-9,36,34,30,36,33,30,99,99,99,0.00,40.00,26,14,32,0.07
2013-3-10,29,25,20,28,24,19,99,99,98,0.00,40.00,30,22,37,0.01
2013-3-11,28,21,15,23,18,14,99,89,63,0.00,40.00,24,15,29,0.00
2013-3-12,29,24,20,27,20,16,99,86,73,0.00,40.00,31,22,40,0.00
2013-3-13,31,22,14,25,18,12,96,84,64,0.00,40.00,24,11,29,0.00
2013-3-14,40,34,27,37,30,23,99,86,74,0.00,40.00,26,11,34,0.00
2013-3-15,37,32,30,37,32,30,99,99,99,0.00,40.00,13,9,18,0.00
2013-3-16,30,19,10,28,18,7,99,95,83,0.00,40.00,16,12,21,0.00
2013-3-17,31,19,8,30,15,3,99,83,70,0.00,40.00,34,17,40,0.00
2013-3-18,33,19,10,32,14,3,99,81,67,0.00,40.00,35,27,43,0.01
2013-3-19,21,13,8,10,4,1,80,67,53,0.00,40.00,27,19,39,0.00
2013-3-20,19,12,6,7,3,0,80,67,53,0.00,40.00,25,18,33,0.00
2013-3-21,28,16,5,16,7,0,85,69,48,0.00,40.00,12,6,16,0.00
2013-3-22,32,22,12,21,15,10,91,77,56,0.00,40.00,12,4,14,0.00
2013-3-23,29,24,21,19,18,14,94,76,60,0.00,40.00,14,8,19,0.00
2013-3-24,28,24,19,27,23,18,99,97,84,0.00,40.00,19,14,26,0.00
2013-3-25,31,25,20,25,22,18,99,87,71,0.00,40.00,23,16,29,0.00
2013-3-26,35,24,16,27,20,14,99,84,56,0.00,40.00,16,10,19,0.00
2013-3-27,44,32,22,30,26,21,99,80,53,0.00,40.00,13,9,17,0.00
2013-3-28,50,39,31,37,33,28,99,83,58,0.00,40.00,18,13,21,0.00
2013-3-29,56,46,35,45,40,34,99,79,56,0.00,40.00,22,16,29,0.00
2013-3-30,52,44,34,48,41,34,99,89,67,0.00,40.00,24,16,29,0.00
2013-3-31,35,30,21,34,24,14,99,79,53,0.00,40.00,30,20,39,0.00
2013-4-1,32,24,17,19,15,10,92,68,48,0.00,40.00,21,13,29,0.00
2013-4-2,38,28,20,25,20,18,95,74,51,0.00,40.00,13,6,19,0.00
2013-4-3,52,36,24,34,26,19,88,68,48,0.00,40.00,30,18,38,0.00
2013-4-4,48,39,27,34,29,25,95,69,45,0.00,40.00,35,16,40,0.00
2013-4-5,45,36,25,36,29,25,99,76,52,0.00,40.00,37,16,42,0.00
2013-4-6,55,44,32,45,39,32,99,82,65,0.00,40.00,31,20,38,0.00
2013-4-7,49,39,30,46,37,30,99,94,75,0.00,40.00,19,11,24,0.01
2013-4-8,47,43,39,46,42,39,99,99,99,0.00,40.00,19,9,25,0.01
2013-4-9,38,32,28,37,31,28,99,99,99,0.00,40.00,24,11,32,0.09
2013-4-10,32,30,28,32,30,28,99,99,99,0.00,40.00,4,1,6,0.02
2013-4-11,37,31,29,36,30,28,99,99,91,0.00,40.00,15,6,20,0.01
2013-4-12,35,30,26,30,28,25,99,94,76,0.00,40.00,19,13,23,0.00
2013-4-13,38,31,27,30,26,21,99,84,51,0.00,40.00,17,10,20,0.00
2013-4-14,37,33,29,36,32,28,99,99,92,0.00,40.00,32,22,41,0.00
2013-4-15,36,34,33,32,31,30,86,86,85,0.00,40.00,20,18,26,0.00
2013-10-27,54,46,32,34,31,25,77,57,45,0.00,40.00,20,14,23,0.00
2013-10-28,-200,0,200,-100,-100,-100,67,67,67,0.00,40.00,7,7,9,0.00
2013-11-2,-200,0,200,-100,-100,-100,0,0,100,0.00,40.00,11,11,12,0.00
2013-11-8,29,29,29,23,23,23,76,76,76,0.00,40.00,14,14,17,0.00
2013-11-9,42,21,42,39,-30,-100,90,45,90,0.00,40.00,19,18,26,0.00
2013-11-10,38,34,31,30,28,28,89,82,75,0.00,40.00,18,13,21,0.00
2013-11-11,21,21,21,21,21,21,98,98,98,0.00,40.00,15,15,22,0.00
2013-11-13,41,41,41,32,32,32,70,70,70,0.00,40.00,21,21,26,0.00
2013-11-14,35,35,35,34,34,34,94,94,94,0.00,40.00,11,11,12,0.00
2013-11-30,-200,0,200,-100,-100,-100,0,0,100,0.00,40.00,11,11,15,0.00
2013-12-3,31,31,31,30,30,30,99,99,99,0.00,40.00,11,11,13,0.00